createdAt,value
2023-05-10T00:01:52.364Z,98419.78
2023-05-10T00:04:18.817Z,98426.09
2023-05-10T00:06:45.163Z,98424.25
2023-05-10T00:09:11.578Z,98422.03
2023-05-10T00:11:37.946Z,98417.84
2023-05-10T00:14:04.240Z,98416.59
2023-05-10T00:16:30.736Z,98408.44
2023-05-10T00:18:57.117Z,98420.94
2023-05-10T00:21:23.748Z,98427.47
2023-05-10T00:23:50.137Z,98410.63
2023-05-10T00:26:16.545Z,98412.69
2023-05-10T00:28:43.016Z,98418.28
2023-05-10T00:31:09.610Z,98408.97
2023-05-10T00:33:35.920Z,98406.47
2023-05-10T00:36:02.193Z,98405.63
2023-05-10T00:38:28.568Z,98400.03
2023-05-10T00:40:55.235Z,98410.13
2023-05-10T00:43:21.618Z,98408.16
2023-05-10T00:45:48.150Z,98409.91
2023-05-10T00:48:14.565Z,98398.50
2023-05-10T00:50:40.960Z,98402.00
2023-05-10T00:53:08.240Z,98399.47
2023-05-10T00:55:34.851Z,98409.56
2023-05-10T00:58:01.394Z,98393.50
2023-05-10T01:00:27.865Z,98387.81
2023-05-10T01:02:55.460Z,98400.00
2023-05-10T01:05:22.241Z,98391.72
2023-05-10T01:07:48.670Z,98406.72
2023-05-10T01:10:15.280Z,98397.09
2023-05-10T01:12:45.858Z,98396.84
2023-05-10T01:15:13.669Z,98407.66
2023-05-10T01:17:42.224Z,98409.50
2023-05-10T01:20:10.231Z,98390.44
2023-05-10T01:23:08.187Z,98411.09
2023-05-10T01:25:43.221Z,98411.22
2023-05-10T01:28:24.556Z,98421.03
2023-05-10T01:31:09.450Z,98424.56
2023-05-10T01:34:08.115Z,98416.59
2023-05-10T01:36:52.504Z,98419.94
2023-05-10T01:39:24.869Z,98422.88
2023-05-10T01:42:10.504Z,98424.31
2023-05-10T01:44:42.785Z,98418.47
2023-05-10T01:47:16.649Z,98413.75
2023-05-10T01:49:48.468Z,98421.81
2023-05-10T01:52:18.894Z,98429.81
2023-05-10T01:55:00.345Z,98422.16
2023-05-10T01:57:28.823Z,98431.88
2023-05-10T01:59:56.006Z,98411.28
2023-05-10T02:02:25.706Z,98418.78
2023-05-10T02:04:54.428Z,98412.97
2023-05-10T02:07:22.666Z,98425.19
2023-05-10T02:09:51.582Z,98417.69
2023-05-10T02:12:19.741Z,98432.06
2023-05-10T02:14:47.577Z,98427.91
2023-05-10T02:17:15.088Z,98436.50
2023-05-10T02:19:43.115Z,98437.63
2023-05-10T02:22:10.545Z,98431.09
2023-05-10T02:24:38.652Z,98428.03
2023-05-10T02:27:05.492Z,98424.28
2023-05-10T02:29:33.270Z,98427.75
2023-05-10T02:32:01.103Z,98430.94
2023-05-10T02:34:28.631Z,98412.75
2023-05-10T02:36:56.240Z,98407.88
2023-05-10T02:39:24.010Z,98434.72
2023-05-10T02:41:51.614Z,98421.38
2023-05-10T02:44:20.391Z,98424.00
2023-05-10T02:46:47.773Z,98430.13
2023-05-10T02:49:14.401Z,98410.38
2023-05-10T02:51:50.363Z,98431.22
2023-05-10T02:54:21.179Z,98409.09
2023-05-10T02:56:57.341Z,98408.56
2023-05-10T02:59:23.748Z,98418.69
2023-05-10T03:01:50.213Z,98417.75
2023-05-10T03:04:16.816Z,98417.19
2023-05-10T03:06:43.328Z,98429.41
2023-05-10T03:09:10.349Z,98416.34
2023-05-10T03:11:55.870Z,98431.94
2023-05-10T03:14:35.817Z,98424.56
2023-05-10T03:17:29.821Z,98424.41
2023-05-10T03:19:58.726Z,98419.97
2023-05-10T03:22:33.245Z,98430.00
2023-05-10T03:25:03.716Z,98416.88
2023-05-10T03:27:31.031Z,98417.03
2023-05-10T03:29:58.797Z,98416.22
2023-05-10T03:32:25.305Z,98418.56
2023-05-10T03:34:51.690Z,98416.47
2023-05-10T03:37:18.051Z,98417.59
2023-05-10T03:39:44.437Z,98428.59
2023-05-10T03:42:10.918Z,98412.88
2023-05-10T03:44:37.292Z,98422.03
2023-05-10T03:47:03.775Z,98419.41
2023-05-10T03:49:30.096Z,98429.28
2023-05-10T03:51:56.424Z,98422.19
2023-05-10T03:54:22.817Z,98422.88
2023-05-10T03:56:49.124Z,98425.94
2023-05-10T03:59:15.804Z,98417.19
2023-05-10T04:01:42.223Z,98415.91
2023-05-10T04:04:08.633Z,98429.84
2023-05-10T04:06:35.210Z,98414.69
2023-05-10T04:09:01.633Z,98416.91
2023-05-10T04:11:27.954Z,98426.22
2023-05-10T04:13:54.771Z,98447.09
2023-05-10T04:16:21.174Z,98436.94
2023-05-10T04:18:47.564Z,98448.91
2023-05-10T04:21:14.503Z,98453.66
2023-05-10T04:23:41.334Z,98436.38
2023-05-10T04:26:07.734Z,98446.81
2023-05-10T04:28:34.112Z,98451.28
2023-05-10T04:31:04.524Z,98450.44
2023-05-10T04:33:31.321Z,98443.06
2023-05-10T04:35:57.713Z,98449.59
2023-05-10T04:38:24.288Z,98446.53
2023-05-10T04:40:50.737Z,98449.44
2023-05-10T04:43:17.098Z,98433.88
2023-05-10T04:45:43.605Z,98454.47
2023-05-10T04:48:09.990Z,98443.06
2023-05-10T04:50:36.694Z,98459.59
2023-05-10T04:53:02.985Z,98454.72
2023-05-10T04:55:29.332Z,98463.66
2023-05-10T04:57:55.711Z,98452.78
2023-05-10T05:00:22.033Z,98456.41
2023-05-10T05:02:48.530Z,98464.63
2023-05-10T05:05:15.069Z,98471.31
2023-05-10T05:07:41.498Z,98458.50
2023-05-10T05:10:09.245Z,98473.09
2023-05-10T05:12:36.347Z,98472.94
2023-05-10T05:15:04.792Z,98468.53
2023-05-10T05:17:31.820Z,98477.81
2023-05-10T05:19:58.263Z,98484.25
2023-05-10T05:22:24.928Z,98478.25
2023-05-10T05:24:51.230Z,98486.75
2023-05-10T05:30:05.356Z,98505.78
2023-05-10T05:32:31.887Z,98495.22
2023-05-10T05:34:58.232Z,98495.09
2023-05-10T05:37:24.694Z,98502.72
2023-05-10T05:39:51.596Z,98516.38
2023-05-10T05:42:18.039Z,98498.66
2023-05-10T05:44:44.799Z,98488.38
2023-05-10T05:47:12.040Z,98512.72
2023-05-10T05:49:38.573Z,98508.53
2023-05-10T05:52:05.604Z,98497.69
2023-05-10T05:54:32.459Z,98512.06
2023-05-10T05:57:01.167Z,98524.31
2023-05-10T05:59:29.292Z,98531.41
2023-05-10T06:01:55.715Z,98533.59
2023-05-10T06:04:22.934Z,98528.59
2023-05-10T06:06:49.845Z,98535.19
2023-05-10T06:09:16.525Z,98531.28
2023-05-10T06:11:42.817Z,98541.16
2023-05-10T06:14:09.638Z,98539.59
2023-05-10T06:16:36.068Z,98551.88
2023-05-10T06:19:04.575Z,98552.41
2023-05-10T06:21:30.916Z,98549.47
2023-05-10T06:23:58.009Z,98548.59
2023-05-10T06:26:24.417Z,98550.38
2023-05-10T06:28:51.063Z,98541.97
2023-05-10T06:31:17.904Z,98547.03
2023-05-10T06:33:44.650Z,98563.66
2023-05-10T06:36:11.063Z,98567.13
2023-05-10T06:38:37.554Z,98556.66
2023-05-10T06:41:04.078Z,98574.06
2023-05-10T06:43:30.474Z,98565.66
2023-05-10T06:45:58.260Z,98567.59
2023-05-10T06:48:24.685Z,98574.88
2023-05-10T06:50:51.183Z,98574.91
2023-05-10T06:53:17.487Z,98579.13
2023-05-10T06:55:45.313Z,98580.25
2023-05-10T06:58:11.962Z,98554.66
2023-05-10T07:00:38.400Z,98572.06
2023-05-10T07:03:04.823Z,98577.66
2023-05-10T07:05:31.303Z,98576.56
2023-05-10T07:07:57.703Z,98569.91
2023-05-10T07:10:24.062Z,98577.84
2023-05-10T07:12:50.620Z,98582.72
2023-05-10T07:15:17.719Z,98592.97
2023-05-10T07:17:45.789Z,98584.13
2023-05-10T07:20:13.044Z,98589.75
2023-05-10T07:22:39.541Z,98590.50
2023-05-10T07:25:12.083Z,98582.25
2023-05-10T07:27:38.630Z,98584.97
2023-05-10T07:30:08.242Z,98601.31
2023-05-10T07:32:38.163Z,98617.94
2023-05-10T07:35:10.951Z,98612.31
2023-05-10T07:37:38.774Z,98611.53
2023-05-10T07:40:06.537Z,98607.34
2023-05-10T07:42:33.342Z,98583.66
2023-05-10T07:45:00.427Z,98613.03
2023-05-10T07:47:26.932Z,98587.94
2023-05-10T07:49:53.291Z,98588.56
2023-05-10T07:52:22.408Z,98592.41
2023-05-10T07:54:49.189Z,98607.34
2023-05-10T07:57:16.262Z,98602.53
2023-05-10T07:59:44.130Z,98605.16
2023-05-10T08:02:10.466Z,98610.25
2023-05-10T08:04:37.201Z,98630.50
2023-05-10T08:07:03.578Z,98625.56
2023-05-10T08:09:30.536Z,98620.53
2023-05-10T08:11:56.868Z,98635.03
2023-05-10T08:14:23.586Z,98618.50
2023-05-10T08:16:49.901Z,98642.38
2023-05-10T08:19:16.278Z,98637.31
2023-05-10T08:21:43.870Z,98634.41
2023-05-10T08:24:11.128Z,98640.13
2023-05-10T08:26:37.630Z,98642.97
2023-05-10T08:29:04.024Z,98634.25
2023-05-10T08:31:31.567Z,98625.84
2023-05-10T08:33:59.656Z,98624.81
2023-05-10T08:36:26.079Z,98630.28
2023-05-10T08:38:52.769Z,98630.19
2023-05-10T08:41:21.628Z,98620.66
2023-05-10T08:43:48.529Z,98617.84
2023-05-10T08:46:19.811Z,98626.34
2023-05-10T08:48:48.633Z,98647.31
2023-05-10T08:51:18.719Z,98650.28
2023-05-10T08:53:47.602Z,98667.25
2023-05-10T08:56:14.344Z,98676.25
2023-05-10T08:58:40.741Z,98682.13
2023-05-10T09:01:08.306Z,98673.75
2023-05-10T09:03:35.612Z,98676.75
2023-05-10T09:06:02.042Z,98682.97
2023-05-10T09:08:28.752Z,98681.22
2023-05-10T09:10:56.359Z,98685.66
2023-05-10T09:13:25.929Z,98695.16
2023-05-10T09:15:53.428Z,98689.59
2023-05-10T09:18:20.135Z,98697.22
2023-05-10T09:20:52.749Z,98685.88
2023-05-10T09:23:19.072Z,98688.06
2023-05-10T09:25:45.997Z,98700.88
2023-05-10T09:28:12.895Z,98686.59
2023-05-10T09:30:39.617Z,98694.84
2023-05-10T09:33:06.274Z,98701.25
2023-05-10T09:35:38.478Z,98709.13
2023-05-10T09:38:06.682Z,98713.31
2023-05-10T09:40:33.459Z,98703.19
2023-05-10T09:43:07.584Z,98704.66
2023-05-10T09:45:38.257Z,98716.56
2023-05-10T09:48:05.840Z,98706.66
2023-05-10T09:50:32.532Z,98703.91
2023-05-10T09:53:01.392Z,98713.06
2023-05-10T09:55:39.531Z,98717.91
2023-05-10T09:58:06.115Z,98698.84
2023-05-10T10:00:38.527Z,98713.88
2023-05-10T10:03:05.931Z,98705.50
2023-05-10T10:05:33.963Z,98699.72
2023-05-10T10:08:01.655Z,98707.06
2023-05-10T10:10:29.619Z,98719.72
2023-05-10T10:12:56.248Z,98709.19
2023-05-10T10:15:24.917Z,98714.94
2023-05-10T10:17:52.731Z,98705.56
2023-05-10T10:20:21.591Z,98696.97
2023-05-10T10:22:48.670Z,98707.63
2023-05-10T10:25:19.048Z,98704.91
2023-05-10T10:27:54.738Z,98722.50
2023-05-10T10:30:40.260Z,98723.16
2023-05-10T10:33:29.473Z,98723.56
2023-05-10T10:35:59.034Z,98727.56
2023-05-10T10:38:25.764Z,98714.28
2023-05-10T10:41:13.027Z,98741.00
2023-05-10T10:43:40.666Z,98732.66
2023-05-10T10:46:16.200Z,98729.63
2023-05-10T10:48:48.950Z,98726.81
2023-05-10T10:51:18.852Z,98723.72
2023-05-10T10:53:45.294Z,98715.53
2023-05-10T10:56:13.358Z,98724.31
2023-05-10T10:58:40.963Z,98723.00
2023-05-10T11:01:17.531Z,98694.69
2023-05-10T11:04:02.061Z,98732.75
2023-05-10T11:06:32.922Z,98715.91
2023-05-10T11:08:59.866Z,98722.03
2023-05-10T11:11:26.485Z,98713.63
2023-05-10T11:13:52.809Z,98719.13
2023-05-10T11:16:24.002Z,98720.03
2023-05-10T11:19:00.742Z,98727.22
2023-05-10T11:21:27.103Z,98717.19
2023-05-10T11:23:55.657Z,98723.16
2023-05-10T11:26:22.402Z,98721.06
2023-05-10T11:28:49.807Z,98715.69
2023-05-10T11:31:20.564Z,98717.53
2023-05-10T11:33:49.744Z,98726.22
2023-05-10T11:36:18.467Z,98715.97
2023-05-10T11:38:47.423Z,98720.81
2023-05-10T11:41:14.429Z,98719.59
2023-05-10T11:43:41.587Z,98718.19
2023-05-10T11:46:12.749Z,98716.31
2023-05-10T11:48:43.893Z,98717.19
2023-05-10T11:51:11.663Z,98714.72
2023-05-10T11:53:38.199Z,98726.31
2023-05-10T11:56:09.329Z,98733.22
2023-05-10T11:58:39.642Z,98734.22
2023-05-10T12:01:07.944Z,98726.06
2023-05-10T12:03:35.261Z,98731.03
2023-05-10T12:06:04.143Z,98721.69
2023-05-10T12:08:31.215Z,98721.91
2023-05-10T12:11:08.954Z,98719.94
2023-05-10T12:13:42.727Z,98729.31
2023-05-10T12:16:15.045Z,98730.84
2023-05-10T12:18:42.008Z,98741.13
2023-05-10T12:21:11.486Z,98728.28
2023-05-10T12:23:38.097Z,98731.22
2023-05-10T12:26:05.805Z,98740.22
2023-05-10T12:28:33.712Z,98744.84
2023-05-10T12:31:00.891Z,98745.16
2023-05-10T12:33:27.457Z,98740.00
2023-05-10T12:35:56.808Z,98733.81
2023-05-10T12:38:34.631Z,98745.88
2023-05-10T12:41:03.592Z,98747.88
2023-05-10T12:43:30.552Z,98755.00
2023-05-10T12:45:57.607Z,98751.66
2023-05-10T12:48:24.104Z,98756.94
2023-05-10T12:50:51.532Z,98762.72
2023-05-10T12:53:18.338Z,98766.34
2023-05-10T12:55:45.100Z,98753.13
2023-05-10T12:58:15.799Z,98735.59
2023-05-10T13:00:48.337Z,98756.47
2023-05-10T13:03:14.649Z,98767.63
2023-05-10T13:05:41.001Z,98769.47
2023-05-10T13:08:10.813Z,98753.66
2023-05-10T13:10:37.667Z,98760.72
2023-05-10T13:13:04.404Z,98762.25
2023-05-10T13:15:34.228Z,98770.28
2023-05-10T13:18:01.111Z,98769.16
2023-05-10T13:20:27.922Z,98759.19
2023-05-10T13:22:57.165Z,98766.38
2023-05-10T13:25:23.623Z,98760.59
2023-05-10T13:27:50.424Z,98764.31
2023-05-10T13:30:17.268Z,98760.50
2023-05-10T13:32:43.791Z,98771.34
2023-05-10T13:35:11.036Z,98770.69
2023-05-10T13:37:37.481Z,98766.88
2023-05-10T13:40:04.705Z,98769.66
2023-05-10T13:42:31.406Z,98762.31
2023-05-10T13:44:58.005Z,98757.59
2023-05-10T13:47:24.357Z,98766.66
2023-05-10T13:49:50.997Z,98769.31
2023-05-10T13:52:17.812Z,98752.94
2023-05-10T13:54:44.585Z,98755.00
2023-05-10T13:57:11.128Z,98766.69
2023-05-10T13:59:37.588Z,98758.88
2023-05-10T14:02:04.018Z,98755.84
2023-05-10T14:04:30.969Z,98751.19
2023-05-10T14:06:57.531Z,98743.81
2023-05-10T14:09:24.263Z,98760.53
2023-05-10T14:11:50.742Z,98749.97
2023-05-10T14:14:17.041Z,98747.78
2023-05-10T14:16:45.827Z,98756.75
2023-05-10T14:19:12.293Z,98770.72
2023-05-10T14:21:38.714Z,98756.81
2023-05-10T14:24:05.287Z,98756.97
2023-05-10T14:26:31.802Z,98769.06
2023-05-10T14:28:58.325Z,98776.38
2023-05-10T14:31:25.133Z,98774.94
2023-05-10T14:33:51.561Z,98789.34
2023-05-10T14:36:18.546Z,98793.34
2023-05-10T14:38:44.988Z,98808.78
2023-05-10T14:41:12.011Z,98816.28
2023-05-10T14:43:38.556Z,98817.91
2023-05-10T14:46:05.071Z,98831.00
2023-05-10T14:48:31.363Z,98840.38
2023-05-10T14:50:57.780Z,98825.72
2023-05-10T14:53:25.674Z,98846.19
2023-05-10T14:55:52.062Z,98841.16
2023-05-10T14:58:18.673Z,98841.16
2023-05-10T15:00:45.295Z,98850.06
2023-05-10T15:03:12.186Z,98847.69
2023-05-10T15:05:39.141Z,98858.72
2023-05-10T15:08:05.843Z,98858.53
2023-05-10T15:10:34.372Z,98854.88
2023-05-10T15:13:00.867Z,98858.22
2023-05-10T15:15:27.865Z,98861.22
2023-05-10T15:17:54.654Z,98860.66
2023-05-10T15:20:21.326Z,98863.41
2023-05-10T15:22:47.743Z,98862.78
2023-05-10T15:25:14.371Z,98866.88
2023-05-10T15:27:40.753Z,98869.44
2023-05-10T15:30:07.932Z,98869.94
2023-05-10T15:32:34.277Z,98871.91
2023-05-10T15:35:00.683Z,98872.34
2023-05-10T15:37:27.053Z,98872.97
2023-05-10T15:39:53.923Z,98876.63
2023-05-10T15:42:21.473Z,98878.53
2023-05-10T15:44:47.767Z,98873.09
2023-05-10T15:47:14.169Z,98878.13
2023-05-10T15:49:40.737Z,98866.75
2023-05-10T15:52:07.036Z,98874.66
2023-05-10T15:54:33.439Z,98872.53
2023-05-10T15:56:59.768Z,98871.69
2023-05-10T15:59:26.197Z,98887.44
2023-05-10T16:01:52.767Z,98884.41
2023-05-10T16:04:19.184Z,98885.13
2023-05-10T16:06:45.593Z,98876.66
2023-05-10T16:09:12.005Z,98885.91
2023-05-10T16:11:38.305Z,98878.91
2023-05-10T16:14:06.204Z,98886.84
2023-05-10T16:16:33.685Z,98900.84
2023-05-10T16:19:00.141Z,98891.09
2023-05-10T16:21:27.812Z,98893.19
2023-05-10T16:23:54.765Z,98890.94
2023-05-10T16:26:21.080Z,98889.75
2023-05-10T16:28:48.832Z,98903.53
2023-05-10T16:31:15.267Z,98886.97
2023-05-10T16:33:41.609Z,98888.41
2023-05-10T16:36:07.995Z,98899.56
2023-05-10T16:38:34.300Z,98894.28
2023-05-10T16:41:03.793Z,98901.94
2023-05-10T16:43:32.115Z,98904.31
2023-05-10T16:45:58.663Z,98903.25
2023-05-10T16:48:25.090Z,98893.75
2023-05-10T16:50:51.418Z,98896.81
2023-05-10T16:53:18.262Z,98908.00
2023-05-10T16:55:44.578Z,98891.81
2023-05-10T16:58:10.905Z,98888.91
2023-05-10T17:00:37.232Z,98902.19
2023-05-10T17:03:04.349Z,98913.94
2023-05-10T17:05:30.708Z,98903.84
2023-05-10T17:07:57.026Z,98910.56
2023-05-10T17:10:23.378Z,98918.38
2023-05-10T17:12:49.697Z,98909.78
2023-05-10T17:15:16.381Z,98917.03
2023-05-10T17:17:42.996Z,98916.31
2023-05-10T17:20:09.785Z,98920.63
2023-05-10T17:22:36.183Z,98920.50
2023-05-10T17:25:02.656Z,98924.81
2023-05-10T17:27:30.917Z,98923.88
2023-05-10T17:29:57.836Z,98926.38
2023-05-10T17:32:24.455Z,98934.06
2023-05-10T17:34:50.982Z,98939.09
2023-05-10T17:37:17.572Z,98939.69
2023-05-10T17:39:43.887Z,98929.19
2023-05-10T17:42:10.212Z,98930.78
2023-05-10T17:44:39.365Z,98926.56
2023-05-10T17:47:05.699Z,98931.97
2023-05-10T17:49:32.003Z,98930.66
2023-05-10T17:51:58.320Z,98938.47
2023-05-10T17:54:24.618Z,98937.72
2023-05-10T17:56:50.904Z,98919.69
2023-05-10T17:59:17.222Z,98926.19
2023-05-10T18:01:43.655Z,98939.56
2023-05-10T18:04:10.024Z,98915.34
2023-05-10T18:06:37.003Z,98936.06
2023-05-10T18:09:04.303Z,98933.66
2023-05-10T18:11:30.757Z,98935.22
2023-05-10T18:13:57.205Z,98933.94
2023-05-10T18:16:23.613Z,98937.28
2023-05-10T18:18:50.337Z,98942.75
2023-05-10T18:21:19.874Z,98939.78
2023-05-10T18:23:46.262Z,98936.84
2023-05-10T18:26:12.837Z,98935.97
2023-05-10T18:28:39.230Z,98924.78
2023-05-10T18:31:06.246Z,98928.81
2023-05-10T18:33:32.837Z,98940.56
2023-05-10T18:36:00.359Z,98942.38
2023-05-10T18:38:26.854Z,98948.78
2023-05-10T18:40:53.254Z,98950.75
2023-05-10T18:43:21.734Z,98952.13
2023-05-10T18:45:48.206Z,98952.63
2023-05-10T18:48:14.773Z,98958.53
2023-05-10T18:50:41.221Z,98960.56
2023-05-10T18:53:07.725Z,98950.50
2023-05-10T18:55:34.506Z,98960.41
2023-05-10T18:58:01.145Z,98962.06
2023-05-10T19:00:27.439Z,98971.94
2023-05-10T19:02:53.846Z,98975.53
2023-05-10T19:05:22.686Z,98978.44
2023-05-10T19:07:48.996Z,98976.91
2023-05-10T19:10:15.327Z,98983.59
2023-05-10T19:12:41.733Z,98983.03
2023-05-10T19:15:08.676Z,98984.13
2023-05-10T19:17:48.355Z,98981.47
2023-05-10T19:21:07.520Z,98967.13
2023-05-10T19:23:35.237Z,98994.94
2023-05-10T19:26:01.976Z,98993.44
2023-05-10T19:28:28.487Z,98995.47
2023-05-10T19:30:58.624Z,98988.78
2023-05-10T19:33:25.065Z,98991.66
2023-05-10T19:35:54.959Z,98987.59
2023-05-10T19:38:24.569Z,98979.78
2023-05-10T19:40:54.853Z,98993.59
2023-05-10T19:43:22.054Z,98994.94
2023-05-10T19:45:48.375Z,99006.94
2023-05-10T19:48:14.743Z,99007.78
2023-05-10T19:50:41.064Z,99011.50
2023-05-10T19:53:07.407Z,99015.25
2023-05-10T19:55:33.840Z,99018.50
2023-05-10T19:58:00.172Z,99001.34
2023-05-10T20:00:26.968Z,99014.09
2023-05-10T20:02:53.868Z,99015.03
2023-05-10T20:05:20.710Z,99020.34
2023-05-10T20:07:47.342Z,99012.53
2023-05-10T20:10:13.731Z,99018.50
2023-05-10T20:12:40.040Z,99006.03
2023-05-10T20:15:07.625Z,99013.16
2023-05-10T20:17:35.404Z,99021.19
2023-05-10T20:20:01.804Z,99013.78
2023-05-10T20:22:28.157Z,99013.78
2023-05-10T20:24:56.024Z,99021.81
2023-05-10T20:27:23.022Z,99017.38
2023-05-10T20:29:49.328Z,99027.69
2023-05-10T20:32:15.630Z,99025.06
2023-05-10T20:34:41.948Z,99013.16
2023-05-10T20:37:08.268Z,99000.81
2023-05-10T20:39:34.554Z,99008.97
2023-05-10T20:42:00.872Z,99020.97
2023-05-10T20:44:27.167Z,99018.44
2023-05-10T20:46:53.507Z,99006.97
2023-05-10T20:49:19.842Z,99005.41
2023-05-10T20:51:46.163Z,99009.59
2023-05-10T20:54:12.482Z,99001.19
2023-05-10T20:56:38.846Z,99004.81
2023-05-10T20:59:05.250Z,99006.47
2023-05-10T21:01:31.654Z,99015.97
2023-05-10T21:03:58.087Z,99003.63
2023-05-10T21:06:24.450Z,99007.22
2023-05-10T21:08:50.802Z,99019.06
2023-05-10T21:11:17.136Z,99016.53
2023-05-10T21:13:43.426Z,99018.22
2023-05-10T21:16:09.825Z,99016.28
2023-05-10T21:18:36.189Z,99026.53
2023-05-10T21:21:02.542Z,99020.41
2023-05-10T21:23:28.877Z,99017.03
2023-05-10T21:25:55.830Z,99008.41
2023-05-10T21:28:22.228Z,99007.56
2023-05-10T21:30:48.599Z,99009.84
2023-05-10T21:33:14.932Z,99000.22
2023-05-10T21:35:41.284Z,99010.69
2023-05-10T21:38:07.683Z,99003.00
2023-05-10T21:40:34.245Z,99010.94
2023-05-10T21:43:00.671Z,99009.97
2023-05-10T21:45:27.142Z,99002.03
2023-05-10T21:47:53.679Z,99013.06
2023-05-10T21:50:20.513Z,99012.25
2023-05-10T21:52:46.985Z,99019.19
2023-05-10T21:55:13.374Z,99010.81
2023-05-10T21:57:39.672Z,99011.25
2023-05-10T22:00:06.813Z,99012.38
2023-05-10T22:02:33.264Z,99006.59
2023-05-10T22:05:01.473Z,99012.63
2023-05-10T22:07:28.168Z,99017.28
2023-05-10T22:09:54.474Z,99016.56
2023-05-10T22:12:21.031Z,99008.66
2023-05-10T22:14:50.030Z,99017.41
2023-05-10T22:17:20.713Z,99013.22
2023-05-10T22:19:47.114Z,99009.84
2023-05-10T22:22:13.475Z,99004.94
2023-05-10T22:24:39.844Z,99009.28
2023-05-10T22:27:06.207Z,99012.84
2023-05-10T22:29:32.605Z,99003.72
2023-05-10T22:31:59.004Z,99008.78
2023-05-10T22:34:25.432Z,99006.13
2023-05-10T22:36:51.768Z,99014.44
2023-05-10T22:39:18.289Z,99012.84
2023-05-10T22:41:44.662Z,99005.78
2023-05-10T22:44:10.957Z,99017.56
2023-05-10T22:46:38.621Z,99010.81
2023-05-10T22:49:04.921Z,99014.63
2023-05-10T22:51:31.290Z,99020.78
2023-05-10T22:53:57.655Z,99014.75
2023-05-10T22:56:24.123Z,99013.94
2023-05-10T22:58:51.247Z,99012.47
2023-05-10T23:01:17.604Z,99011.75
2023-05-10T23:03:43.995Z,99005.53
2023-05-10T23:06:10.300Z,99007.31
2023-05-10T23:08:36.712Z,99015.00
2023-05-10T23:11:03.201Z,99011.28
2023-05-10T23:13:30.036Z,99023.28
2023-05-10T23:15:56.447Z,99012.97
2023-05-10T23:18:22.981Z,99013.09
2023-05-10T23:20:49.370Z,99021.41
2023-05-10T23:23:15.777Z,99009.34
2023-05-10T23:25:42.100Z,99023.78
2023-05-10T23:28:08.398Z,99018.50
2023-05-10T23:30:34.759Z,99021.75
2023-05-10T23:33:01.181Z,99017.69
2023-05-10T23:35:27.593Z,99021.16
2023-05-10T23:37:53.980Z,99021.41
2023-05-10T23:40:20.623Z,99022.22
2023-05-10T23:42:47.116Z,99019.09
2023-05-10T23:45:13.413Z,99023.41
2023-05-10T23:47:39.989Z,99010.69
2023-05-10T23:50:07.020Z,99019.22
2023-05-10T23:52:33.317Z,99021.84
2023-05-10T23:54:59.740Z,99017.41
2023-05-10T23:57:26.115Z,99014.88
2023-05-10T23:59:52.418Z,99008.06
